Time;durP1;ratioP1;P1;durP2;ratioP2;P2;SDS_P1;SDS_P2;PMS_P1;PMS_P2;Temp;Humidity;BMP_temperature;BMP_pressure;BME280_temperature;BME280_humidity;BME280_pressure;Samples;Min_cycle;Max_cycle;Signal;HPM_P1;HPM_P2
2023/10/06 00:01:46;;;;;;;10.57;5.10;;;;;;;9.10;100.00;101090.97;1502491;86;21682;-87
2023/10/06 00:04:15;;;;;;;11.20;5.30;;;;;;;9.11;100.00;101092.64;1510209;86;21396;-89
2023/10/06 00:06:43;;;;;;;19.53;6.03;;;;;;;9.09;100.00;101094.55;1509935;86;21700;-86
2023/10/06 00:09:19;;;;;;;31.93;7.10;;;;;;;9.08;100.00;101092.88;1509057;86;22182;-86
2023/10/06 00:11:38;;;;;;;17.93;7.23;;;;;;;9.06;100.00;101090.84;1505379;86;22496;-88
2023/10/06 00:14:15;;;;;;;10.33;4.97;;;;;;;9.02;100.00;101092.40;1514628;86;21477;-83
2023/10/06 00:16:40;;;;;;;10.30;5.00;;;;;;;8.98;100.00;101090.14;1513385;86;21566;-82
2023/10/06 00:21:47;;;;;;;16.93;5.93;;;;;;;8.91;100.00;101090.25;1511463;86;21534;-84
2023/10/06 00:24:15;;;;;;;20.03;6.67;;;;;;;8.89;100.00;101094.34;1501869;86;22038;-83
2023/10/06 00:26:42;;;;;;;19.03;9.17;;;;;;;8.87;100.00;101097.58;1508976;86;21567;-83
2023/10/06 00:29:17;;;;;;;14.40;7.73;;;;;;;8.82;100.00;101098.41;1482414;86;21427;-82
2023/10/06 00:31:39;;;;;;;13.23;7.10;;;;;;;8.78;100.00;101108.86;1505823;86;21656;-82
2023/10/06 00:34:05;;;;;;;12.00;6.50;;;;;;;8.74;100.00;101101.64;1507048;86;22446;-82
2023/10/06 00:36:34;;;;;;;15.37;6.73;;;;;;;8.71;100.00;101106.32;1518107;86;21588;-83
2023/10/06 00:39:00;;;;;;;11.67;5.97;;;;;;;8.67;100.00;101106.21;1503846;86;22328;-82
2023/10/06 00:41:28;;;;;;;15.77;5.50;;;;;;;8.62;100.00;101110.52;1487520;86;21995;-82
2023/10/06 00:43:55;;;;;;;9.90;5.57;;;;;;;8.61;100.00;101111.97;1511893;86;21560;-83
2023/10/06 00:46:21;;;;;;;11.33;4.70;;;;;;;8.61;100.00;101113.29;1519590;86;22136;-83
2023/10/06 00:48:56;;;;;;;11.83;4.40;;;;;;;8.61;100.00;101115.92;1487909;86;22578;-83
2023/10/06 00:51:26;;;;;;;10.07;4.63;;;;;;;8.59;100.00;101122.14;1513850;86;21530;-83
2023/10/06 00:53:59;;;;;;;12.10;4.85;;;;;;;8.57;100.00;101124.08;1508244;86;21462;-82
2023/10/06 00:56:28;;;;;;;10.03;5.57;;;;;;;8.56;100.00;101121.55;1511540;86;21448;-82
2023/10/06 00:58:55;;;;;;;12.17;5.70;;;;;;;8.52;100.00;101118.31;1511245;86;21715;-83
2023/10/06 01:01:22;;;;;;;15.23;5.73;;;;;;;8.44;100.00;101118.05;1512499;86;21485;-83
2023/10/06 01:04:08;;;;;;;14.07;5.60;;;;;;;8.38;100.00;101111.89;1509613;86;21578;-82
2023/10/06 01:06:39;;;;;;;9.80;5.07;;;;;;;8.33;100.00;101113.55;1509538;86;21610;-83
2023/10/06 01:09:30;;;;;;;10.93;5.00;;;;;;;8.30;100.00;101111.14;1506165;86;21492;-82
2023/10/06 01:11:51;;;;;;;10.60;4.77;;;;;;;8.23;100.00;101118.30;1513417;86;21644;-83
2023/10/06 01:14:26;;;;;;;15.17;5.23;;;;;;;8.17;100.00;101125.36;1508084;86;21619;-83
2023/10/06 01:16:53;;;;;;;17.40;6.08;;;;;;;8.16;100.00;101124.53;1503883;86;22299;-83
2023/10/06 01:19:28;;;;;;;14.53;6.23;;;;;;;8.14;100.00;101128.61;1506200;86;21536;-83
2023/10/06 01:21:55;;;;;;;9.63;5.13;;;;;;;8.08;100.00;101123.77;1511712;86;22371;-83
2023/10/06 01:24:26;;;;;;;12.33;5.70;;;;;;;7.99;100.00;101129.73;1510489;86;21611;-83
2023/10/06 01:26:54;;;;;;;;;;;;;;;7.90;100.00;101129.10;1514111;86;21405;-84
2023/10/06 01:29:22;;;;;;;8.27;5.37;;;;;;;7.82;100.00;101131.45;1508923;86;20851;-83
2023/10/06 01:31:51;;;;;;;11.67;4.97;;;;;;;7.75;100.00;101130.23;1511127;86;21433;-83
2023/10/06 01:34:18;;;;;;;9.50;4.63;;;;;;;7.73;100.00;101135.61;1507274;86;22396;-83
2023/10/06 01:36:51;;;;;;;13.67;5.17;;;;;;;7.73;100.00;101140.04;1505843;86;21411;-84
2023/10/06 01:39:18;;;;;;;11.10;5.07;;;;;;;7.74;100.00;101139.95;1513841;86;21637;-82
2023/10/06 01:41:47;;;;;;;11.00;5.60;;;;;;;7.75;100.00;101136.83;1511374;86;21448;-85
2023/10/06 01:44:15;;;;;;;12.00;4.67;;;;;;;7.74;100.00;101138.63;1510112;86;21469;-85
2023/10/06 01:46:43;;;;;;;9.67;5.13;;;;;;;7.69;100.00;101141.59;1516562;86;22439;-86
2023/10/06 01:49:14;;;;;;;9.97;5.63;;;;;;;7.66;100.00;101141.80;1504540;86;22433;-82
2023/10/06 01:51:42;;;;;;;11.90;6.12;;;;;;;7.64;100.00;101143.70;1488226;86;21447;-84
2023/10/06 01:54:13;;;;;;;13.70;5.23;;;;;;;7.58;100.00;101141.52;1510795;86;21485;-85
2023/10/06 01:56:42;;;;;;;10.35;4.87;;;;;;;7.54;100.00;101146.66;1512228;86;21419;-85
2023/10/06 01:59:14;;;;;;;12.40;4.83;;;;;;;7.53;100.00;101150.22;1483033;86;21426;-84
2023/10/06 02:01:41;;;;;;;10.20;5.53;;;;;;;7.54;100.00;101152.37;1514123;86;21471;-83
2023/10/06 02:04:14;;;;;;;7.10;4.20;;;;;;;7.55;100.00;101149.64;1514055;86;22372;-83
2023/10/06 02:06:51;;;;;;;12.10;4.20;;;;;;;7.58;100.00;101156.00;1512693;86;21514;-84
2023/10/06 02:09:25;;;;;;;11.47;5.73;;;;;;;7.58;100.00;101150.73;1504612;86;21670;-83
2023/10/06 02:11:49;;;;;;;8.20;5.00;;;;;;;7.58;100.00;101157.33;1506544;86;22432;-83
2023/10/06 02:14:18;;;;;;;9.17;4.83;;;;;;;7.55;100.00;101153.59;1505515;86;21956;-83
2023/10/06 02:16:45;;;;;;;9.00;4.67;;;;;;;7.51;100.00;101157.41;1501500;86;21464;-83
2023/10/06 02:19:18;;;;;;;16.07;5.30;;;;;;;7.42;100.00;101160.68;1509023;86;21478;-82
2023/10/06 02:21:49;;;;;;;7.57;4.27;;;;;;;7.35;100.00;101158.13;1506143;86;21655;-83
2023/10/06 02:24:16;;;;;;;10.68;4.60;;;;;;;7.31;100.00;101159.28;1507077;86;22402;-83
2023/10/06 02:26:57;;;;;;;8.77;5.03;;;;;;;7.29;100.00;101158.57;1508822;86;21433;-83
2023/10/06 02:29:19;;;;;;;11.20;5.77;;;;;;;7.30;100.00;101161.08;1506856;86;21432;-83
2023/10/06 02:31:44;;;;;;;10.77;5.07;;;;;;;7.30;100.00;101161.56;1505475;86;21588;-83
2023/10/06 02:34:15;;;;;;;8.57;4.80;;;;;;;7.30;100.00;101164.19;1503289;86;21464;-83
2023/10/06 02:36:38;;;;;;;24.03;7.33;;;;;;;7.26;100.00;101162.73;1488489;86;21486;-84
2023/10/06 02:39:06;;;;;;;10.63;4.93;;;;;;;7.20;100.00;101167.48;1513633;86;22535;-82
2023/10/06 02:41:34;;;;;;;15.00;4.83;;;;;;;7.14;100.00;101178.44;1509492;86;21456;-82
2023/10/06 02:44:13;;;;;;;11.67;4.70;;;;;;;7.10;100.00;101169.54;1511922;86;22564;-83
2023/10/06 02:46:29;;;;;;;9.73;4.67;;;;;;;7.08;100.00;101167.03;1508794;86;21500;-82
2023/10/06 02:48:55;;;;;;;8.40;4.87;;;;;;;7.09;100.00;101179.23;1516596;86;21441;-83
2023/10/06 02:51:32;;;;;;;10.47;3.80;;;;;;;7.11;100.00;101170.77;1508169;86;21411;-83
2023/10/06 02:54:13;;;;;;;6.67;4.27;;;;;;;7.12;100.00;101176.37;1503009;86;21463;-82
2023/10/06 02:56:29;;;;;;;9.53;4.03;;;;;;;7.13;100.00;101178.53;1503872;86;21614;-83
2023/10/06 02:59:06;;;;;;;14.47;6.00;;;;;;;7.10;100.00;101170.38;1516640;86;22347;-82
2023/10/06 03:01:24;;;;;;;9.50;4.97;;;;;;;7.11;100.00;101181.30;1507986;86;21581;-82
2023/10/06 03:03:52;;;;;;;6.73;4.37;;;;;;;7.09;100.00;101177.91;1502211;86;21411;-82
2023/10/06 03:06:19;;;;;;;9.47;5.33;;;;;;;7.04;100.00;101178.70;1509547;86;21456;-83
2023/10/06 03:08:47;;;;;;;15.07;5.80;;;;;;;7.00;100.00;101181.19;1507582;86;21448;-82
2023/10/06 03:11:23;;;;;;;9.13;4.73;;;;;;;6.95;100.00;101176.23;1512031;86;21500;-84
2023/10/06 03:13:48;;;;;;;11.40;3.83;;;;;;;6.97;100.00;101172.19;1507322;86;21471;-85
2023/10/06 03:16:19;;;;;;;5.83;3.67;;;;;;;6.94;100.00;101177.19;1510079;86;21477;-84
2023/10/06 03:18:44;;;;;;;8.87;4.27;;;;;;;6.93;100.00;101176.84;1504808;86;21477;-85
2023/10/06 03:21:15;;;;;;;5.47;3.50;;;;;;;6.92;100.00;101182.19;1517268;86;22298;-86
2023/10/06 03:23:45;;;;;;;11.22;4.30;;;;;;;6.89;100.00;101186.34;1508708;86;22548;-86
2023/10/06 03:26:22;;;;;;;8.03;4.73;;;;;;;6.85;100.00;101187.48;1511161;86;22254;-85
2023/10/06 03:28:43;;;;;;;13.07;4.07;;;;;;;6.82;100.00;101185.07;1507112;86;22135;-86
2023/10/06 03:33:47;;;;;;;11.07;5.23;;;;;;;6.74;100.00;101190.88;1503149;86;23062;-88
2023/10/06 03:36:16;;;;;;;10.60;5.00;;;;;;;6.71;100.00;101189.29;1512536;86;21570;-88
2023/10/06 03:38:52;;;;;;;7.97;4.87;;;;;;;6.71;100.00;101195.03;1512256;86;22637;-88
2023/10/06 03:41:24;;;;;;;11.33;4.93;;;;;;;6.71;100.00;101199.81;1501393;86;21448;-87
2023/10/06 03:43:51;;;;;;;9.17;3.80;;;;;;;6.71;100.00;101201.12;1510555;86;21537;-88
2023/10/06 03:46:24;;;;;;;13.87;4.67;;;;;;;6.72;100.00;101206.75;1483987;86;21477;-87
2023/10/06 03:48:52;;;;;;;7.60;4.77;;;;;;;6.71;100.00;101208.18;1503839;86;21632;-87
2023/10/06 03:51:19;;;;;;;9.50;4.70;;;;;;;6.71;100.00;101209.02;1473834;86;22315;-88
2023/10/06 03:53:48;;;;;;;9.27;4.37;;;;;;;6.72;100.00;101209.38;1505162;86;21404;-87
2023/10/06 03:56:18;;;;;;;11.83;4.40;;;;;;;6.71;100.00;101214.77;1513000;86;21477;-87
2023/10/06 03:58:45;;;;;;;9.93;4.87;;;;;;;6.64;100.00;101216.94;1508104;86;21590;-85
2023/10/06 04:01:16;;;;;;;13.00;4.73;;;;;;;6.61;100.00;101217.15;1509080;86;21411;-83
2023/10/06 04:03:41;;;;;;;10.17;3.70;;;;;;;6.60;100.00;101214.64;1507609;86;22387;-84
2023/10/06 04:06:12;;;;;;;6.67;3.87;;;;;;;6.60;100.00;101220.73;1504327;86;21420;-82
2023/10/06 04:08:35;;;;;;;7.60;4.20;;;;;;;6.59;100.00;101221.69;1507800;86;21493;-82
2023/10/06 04:11:04;;;;;;;14.20;3.90;;;;;;;6.60;100.00;101223.84;1513757;86;21478;-87
2023/10/06 04:13:30;;;;;;;6.73;3.37;;;;;;;6.61;100.00;101228.14;1506190;86;21655;-86
2023/10/06 04:15:57;;;;;;;7.13;4.00;;;;;;;6.61;100.00;101228.98;1509635;86;21419;-86
2023/10/06 04:18:24;;;;;;;12.93;4.60;;;;;;;6.62;100.00;101227.19;1507865;86;21463;-86
2023/10/06 04:20:54;;;;;;;9.13;4.87;;;;;;;6.65;100.00;101231.80;1511495;86;23012;-86
2023/10/06 04:23:24;;;;;;;10.23;4.67;;;;;;;6.65;100.00;101233.59;1506424;86;22336;-85
2023/10/06 04:25:57;;;;;;;8.88;4.87;;;;;;;6.62;100.00;101235.95;1512289;86;21412;-86
2023/10/06 04:28:24;;;;;;;10.13;4.42;;;;;;;6.61;100.00;101236.87;1508797;86;22344;-86
2023/10/06 04:30:51;;;;;;;8.67;4.40;;;;;;;6.64;100.00;101243.72;1508596;86;21448;-86
2023/10/06 04:33:21;;;;;;;13.53;3.93;;;;;;;6.64;100.00;101236.67;1505636;86;21462;-82
2023/10/06 04:38:29;;;;;;;11.97;4.47;;;;;;;6.68;100.00;101240.80;1457080;86;22091;-85
2023/10/06 04:40:56;;;;;;;8.23;4.50;;;;;;;6.72;100.00;101240.95;1510167;86;21492;-85
2023/10/06 04:43:24;;;;;;;12.50;5.17;;;;;;;6.74;100.00;101245.64;1512622;86;21618;-86
2023/10/06 04:45:55;;;;;;;5.22;3.60;;;;;;;6.75;100.00;101251.27;1511903;86;21440;-86
2023/10/06 04:48:21;;;;;;;15.43;4.97;;;;;;;6.74;100.00;101248.75;1506800;86;21537;-85
2023/10/06 04:50:50;;;;;;;9.27;3.77;;;;;;;6.75;100.00;101251.27;1513306;86;21581;-86
2023/10/06 04:53:17;;;;;;;7.07;4.47;;;;;;;6.77;100.00;101248.06;1506496;86;21449;-83
2023/10/06 04:55:43;;;;;;;14.67;4.43;;;;;;;6.82;100.00;101258.74;1512305;86;22358;-84
2023/10/06 04:58:15;;;;;;;9.27;4.37;;;;;;;6.87;100.00;101257.97;1505884;86;21456;-83
2023/10/06 05:00:53;;;;;;;8.13;5.30;;;;;;;6.92;100.00;101262.45;1507784;86;21606;-85
2023/10/06 05:03:15;;;;;;;7.27;4.20;;;;;;;6.98;100.00;101254.98;1515100;86;21471;-87
2023/10/06 05:05:42;;;;;;;10.73;4.67;;;;;;;7.07;100.00;101261.41;1514945;86;21456;-86
2023/10/06 05:08:09;;;;;;;12.27;5.10;;;;;;;7.14;100.00;101257.42;1507093;86;21493;-87
2023/10/06 05:10:37;;;;;;;8.57;4.83;;;;;;;7.21;100.00;101256.03;1508554;86;21596;-87
2023/10/06 05:13:06;;;;;;;10.07;5.73;;;;;;;7.27;100.00;101259.20;1504466;86;21507;-86
2023/10/06 05:15:34;;;;;;;13.07;5.80;;;;;;;7.30;100.00;101253.72;1502912;86;21507;-86
2023/10/06 05:18:04;;;;;;;9.90;4.90;;;;;;;7.35;100.00;101259.52;1489805;86;21578;-86
2023/10/06 05:20:33;;;;;;;13.20;5.95;;;;;;;7.43;100.00;101267.73;1504867;86;21463;-87
2023/10/06 05:23:07;;;;;;;10.23;5.77;;;;;;;7.50;100.00;101272.92;1508908;86;21678;-88
2023/10/06 05:25:37;;;;;;;9.47;5.00;;;;;;;7.60;100.00;101275.30;1502862;86;22401;-87
2023/10/06 05:28:07;;;;;;;16.17;5.83;;;;;;;7.69;100.00;101278.59;1510876;86;21634;-86
2023/10/06 05:30:36;;;;;;;13.35;5.47;;;;;;;7.79;100.00;101280.58;1501466;86;22571;-86
2023/10/06 05:33:05;;;;;;;7.73;4.70;;;;;;;7.86;100.00;101286.62;1500407;86;21500;-83
2023/10/06 05:35:38;;;;;;;13.57;5.80;;;;;;;7.90;100.00;101291.20;1505154;86;21463;-83
2023/10/06 05:38:08;;;;;;;11.83;5.83;;;;;;;7.95;100.00;101291.72;1499530;86;21493;-82
2023/10/06 05:40:36;;;;;;;9.70;5.23;;;;;;;8.00;100.00;101297.52;1510817;86;21530;-83
2023/10/06 05:43:04;;;;;;;13.47;5.80;;;;;;;8.07;100.00;101297.42;1496701;86;21583;-86
2023/10/06 05:45:41;;;;;;;15.40;4.83;;;;;;;8.16;100.00;101298.55;1506291;86;21353;-87
2023/10/06 05:48:13;;;;;;;11.37;6.10;;;;;;;8.25;100.00;101302.33;1511195;86;21684;-89
2023/10/06 05:50:43;;;;;;;11.80;6.00;;;;;;;8.33;100.00;101305.25;1511506;86;21613;-88
2023/10/06 05:53:17;;;;;;;19.73;5.75;;;;;;;8.43;100.00;101308.08;1513090;86;21546;-90
2023/10/06 05:55:45;;;;;;;16.50;7.07;;;;;;;8.49;100.00;101305.86;1506958;86;21492;-91
2023/10/06 05:58:14;;;;;;;;;;;;;;;8.55;100.00;101314.64;1505999;86;22327;-90
2023/10/06 06:00:50;;;;;;;9.27;5.47;;;;;;;8.57;100.00;101315.37;1507992;86;20309;-86
2023/10/06 06:03:13;;;;;;;15.23;5.53;;;;;;;8.59;100.00;101317.40;1510995;86;21721;-88
2023/10/06 06:05:42;;;;;;;14.13;7.20;;;;;;;8.62;100.00;101324.73;1511093;86;21468;-87
2023/10/06 06:08:09;;;;;;;21.83;6.43;;;;;;;8.66;100.00;101324.86;1504479;86;21440;-92
2023/10/06 06:10:36;;;;;;;17.03;6.27;;;;;;;8.72;100.00;101325.75;1514205;86;22543;-87
2023/10/06 06:13:04;;;;;;;17.40;5.97;;;;;;;8.81;100.00;101329.03;1511653;86;21447;-90
2023/10/06 06:15:35;;;;;;;14.73;5.93;;;;;;;8.90;100.00;101328.33;1517005;86;21493;-87
2023/10/06 06:18:04;;;;;;;14.47;5.57;;;;;;;8.99;100.00;101327.64;1487074;86;21543;-90
2023/10/06 06:20:31;;;;;;;21.53;5.17;;;;;;;9.13;100.00;101331.88;1512975;86;21463;-87
2023/10/06 06:23:02;;;;;;;28.97;7.43;;;;;;;9.25;100.00;101336.23;1488511;86;21404;-91
2023/10/06 06:25:29;;;;;;;;;;;;;;;9.37;100.00;101343.69;1489140;86;21470;-90
2023/10/06 06:27:59;;;;;;;18.50;5.50;;;;;;;9.51;100.00;101351.05;1509364;86;20302;-91
2023/10/06 06:30:26;;;;;;;14.40;5.90;;;;;;;9.64;100.00;101351.80;1509129;86;22313;-84
2023/10/06 06:32:54;;;;;;;16.87;6.40;;;;;;;9.79;100.00;101350.59;1508617;86;21397;-83
2023/10/06 06:35:24;;;;;;;16.33;4.80;;;;;;;9.87;100.00;101357.45;1508540;86;21515;-84
2023/10/06 06:38:04;;;;;;;12.55;5.33;;;;;;;9.94;100.00;101359.13;1509517;86;21477;-84
2023/10/06 06:40:38;;;;;;;15.40;5.50;;;;;;;10.20;100.00;101359.70;1505241;86;21544;-84
2023/10/06 06:43:09;;;;;;;10.00;4.90;;;;;;;10.20;100.00;101359.70;1507237;86;22140;-87
2023/10/06 06:45:41;;;;;;;8.20;4.77;;;;;;;10.38;100.00;101373.28;1506982;86;21441;-87
2023/10/06 06:48:16;;;;;;;14.97;5.47;;;;;;;10.47;100.00;101367.73;1506791;86;21500;-90
2023/10/06 06:50:44;;;;;;;15.57;5.63;;;;;;;10.56;100.00;101367.02;1509629;86;21599;-85
2023/10/06 06:53:19;;;;;;;8.57;5.00;;;;;;;10.64;100.00;101372.50;1505077;86;21500;-86
2023/10/06 06:55:46;;;;;;;12.20;5.97;;;;;;;10.76;100.00;101373.30;1509663;86;21441;-86
2023/10/06 06:58:16;;;;;;;12.67;5.17;;;;;;;11.01;100.00;101382.23;1508770;86;21418;-87
2023/10/06 07:00:40;;;;;;;11.67;5.00;;;;;;;11.24;100.00;101373.69;1509666;86;21433;-84
2023/10/06 07:03:06;;;;;;;9.27;5.63;;;;;;;11.46;100.00;101376.70;1504983;86;21427;-87
2023/10/06 07:05:36;;;;;;;12.67;6.70;;;;;;;11.66;100.00;101380.80;1508673;86;21617;-86
2023/10/06 07:08:05;;;;;;;11.47;5.77;;;;;;;11.77;100.00;101387.36;1505334;86;21821;-87
2023/10/06 07:10:32;;;;;;;15.43;6.93;;;;;;;11.91;100.00;101383.52;1511144;86;21551;-83
2023/10/06 07:12:58;;;;;;;13.63;7.00;;;;;;;12.04;100.00;101380.16;1506426;86;21551;-86
2023/10/06 07:15:29;;;;;;;14.43;7.23;;;;;;;12.23;100.00;101386.50;1507866;86;21442;-88
2023/10/06 07:17:56;;;;;;;12.20;7.73;;;;;;;12.44;100.00;101385.95;1508283;86;21633;-87
2023/10/06 07:20:32;;;;;;;18.87;6.93;;;;;;;12.61;100.00;101386.61;1432299;86;21389;-86
2023/10/06 07:23:00;;;;;;;19.50;8.80;;;;;;;12.81;100.00;101383.98;1433934;86;21375;-86
2023/10/06 07:25:28;;;;;;;13.10;7.10;;;;;;;12.96;100.00;101377.76;1425594;86;21582;-86
2023/10/06 07:27:59;;;;;;;17.63;6.50;;;;;;;13.08;100.00;101381.45;1427097;86;22233;-86
2023/10/06 07:30:28;;;;;;;11.53;5.37;;;;;;;13.19;100.00;101382.30;1597177;86;21324;-86
2023/10/06 07:32:55;;;;;;;12.27;5.17;;;;;;;13.35;100.00;101386.58;1425310;86;21390;-86
2023/10/06 07:38:13;;;;;;;13.50;4.80;;;;;;;13.64;100.00;101395.00;1597037;86;22425;-87
2023/10/06 07:40:38;;;;;;;11.97;5.30;;;;;;;13.88;100.00;101396.66;1595745;86;22255;-84
2023/10/06 07:43:09;;;;;;;11.43;4.93;;;;;;;14.04;100.00;101396.52;1434423;86;21520;-88
2023/10/06 07:45:36;;;;;;;13.00;5.33;;;;;;;14.13;100.00;101400.98;1565662;86;21456;-85
2023/10/06 07:48:07;;;;;;;11.37;4.37;;;;;;;14.23;100.00;101399.09;1507108;86;21622;-87
2023/10/06 07:50:34;;;;;;;11.80;5.45;;;;;;;14.39;100.00;101395.31;1508948;86;21522;-85
2023/10/06 07:53:01;;;;;;;9.20;5.23;;;;;;;14.46;100.00;101399.53;1510893;86;21470;-86
2023/10/06 07:55:27;;;;;;;12.00;5.80;;;;;;;14.59;100.00;101399.23;1508445;86;21582;-85
2023/10/06 07:57:54;;;;;;;13.10;5.47;;;;;;;14.75;100.00;101392.71;1507270;86;21509;-85
2023/10/06 08:00:27;;;;;;;14.17;5.77;;;;;;;14.71;100.00;101398.02;1509034;86;21552;-85
2023/10/06 08:02:58;;;;;;;12.50;5.57;;;;;;;14.77;100.00;101396.08;1506066;86;21434;-85
2023/10/06 08:05:25;;;;;;;9.37;5.07;;;;;;;14.87;100.00;101395.98;1507576;86;22336;-89
2023/10/06 08:07:52;;;;;;;9.23;5.03;;;;;;;14.94;100.00;101409.56;1508548;86;21433;-86
2023/10/06 08:10:19;;;;;;;12.30;4.90;;;;;;;15.05;100.00;101406.67;1484914;86;22248;-87
2023/10/06 08:12:50;;;;;;;9.83;4.47;;;;;;;15.19;100.00;101410.60;1511379;86;21485;-86
2023/10/06 08:15:17;;;;;;;;;;;;;;;15.35;100.00;101413.41;1513203;86;21500;-86
2023/10/06 08:17:53;;;;;;;9.27;4.60;;;;;;;15.60;100.00;101419.77;1510618;86;20391;-83
2023/10/06 08:20:21;;;;;;;9.63;4.03;;;;;;;15.77;100.00;101416.25;1505281;86;21389;-86
2023/10/06 08:22:49;;;;;;;5.63;2.80;;;;;;;15.93;100.00;101422.16;1507031;86;22461;-81
2023/10/06 08:25:18;;;;;;;9.50;4.43;;;;;;;16.11;100.00;101427.45;1503884;86;21537;-87
2023/10/06 08:27:47;;;;;;;9.33;3.77;;;;;;;16.36;100.00;101432.39;1508523;86;21441;-86
2023/10/06 08:30:16;;;;;;;11.33;4.23;;;;;;;16.58;100.00;101424.80;1509387;86;21530;-85
2023/10/06 08:32:44;;;;;;;14.33;4.13;;;;;;;16.58;100.00;101436.31;1507712;86;21566;-86
2023/10/06 08:35:14;;;;;;;8.63;3.87;;;;;;;16.63;100.00;101430.46;1506570;86;21485;-84
2023/10/06 08:37:47;;;;;;;8.78;3.05;;;;;;;16.55;100.00;101422.45;1508979;86;21456;-87
2023/10/06 08:40:23;;;;;;;18.93;4.27;;;;;;;16.58;100.00;101425.62;1506712;86;21471;-86
2023/10/06 08:42:51;;;;;;;7.77;3.40;;;;;;;16.73;100.00;101425.00;1507928;86;21455;-86
2023/10/06 08:45:25;;;;;;;;;;;;;;;16.84;100.00;101430.06;1507192;86;21529;-87
2023/10/06 08:47:58;;;;;;;9.30;3.50;;;;;;;17.03;100.00;101425.76;1512241;86;20301;-86
2023/10/06 08:50:23;;;;;;;6.97;2.90;;;;;;;17.21;100.00;101432.79;1510395;86;21626;-84
2023/10/06 08:52:51;;;;;;;8.43;2.40;;;;;;;17.37;100.00;101443.47;1509777;86;21676;-82
2023/10/06 08:55:20;;;;;;;7.10;2.63;;;;;;;17.35;100.00;101433.46;1506461;86;21470;-85
2023/10/06 08:57:48;;;;;;;5.87;2.73;;;;;;;17.50;100.00;101425.08;1504024;86;21493;-86
2023/10/06 09:00:17;;;;;;;7.87;2.17;;;;;;;17.69;100.00;101429.22;1508795;86;21611;-82
2023/10/06 09:02:46;;;;;;;4.45;2.80;;;;;;;17.72;100.00;101434.74;1511149;86;21456;-86
2023/10/06 09:05:15;;;;;;;4.70;2.52;;;;;;;17.83;100.00;101434.42;1507786;86;21589;-86
2023/10/06 09:08:05;;;;;;;5.55;3.02;;;;;;;17.94;100.00;101431.89;1508422;86;21587;-85
2023/10/06 09:10:38;;;;;;;7.03;2.85;;;;;;;17.90;100.00;101432.75;1510083;86;22365;-86
2023/10/06 09:13:07;;;;;;;7.50;2.80;;;;;;;17.90;100.00;101431.41;1504725;86;21589;-86
2023/10/06 09:15:40;;;;;;;4.47;2.70;;;;;;;17.81;100.00;101423.07;1512115;86;21693;-85
2023/10/06 09:18:21;;;;;;;5.70;2.27;;;;;;;17.65;100.00;101431.09;1485063;86;21449;-87
2023/10/06 09:20:49;;;;;;;5.83;2.37;;;;;;;17.90;100.00;101430.07;1507831;86;21470;-86
2023/10/06 09:23:34;;;;;;;7.40;2.92;;;;;;;18.10;100.00;101444.42;1510550;86;22403;-86
2023/10/06 09:26:02;;;;;;;4.55;2.45;;;;;;;18.46;100.00;101429.52;1499004;86;21515;-84
2023/10/06 09:28:30;;;;;;;6.05;2.95;;;;;;;18.41;100.00;101428.36;1508905;86;21448;-85
2023/10/06 09:31:01;;;;;;;8.00;2.72;;;;;;;18.59;100.00;101434.83;1505449;86;21396;-86
2023/10/06 09:33:42;;;;;;;9.03;2.70;;;;;;;19.12;100.00;101435.85;1505996;86;21433;-84
2023/10/06 09:36:11;;;;;;;12.80;2.45;;;;;;;19.49;100.00;101420.79;1510086;86;22277;-86
2023/10/06 09:38:39;;;;;;;6.12;2.77;;;;;;;20.00;97.94;101416.94;1499539;86;22402;-85
2023/10/06 09:41:09;;;;;;;11.18;3.50;;;;;;;20.35;93.45;101415.84;1508598;86;21478;-86
2023/10/06 09:43:38;;;;;;;6.97;3.25;;;;;;;20.72;94.60;101411.66;1508065;86;21462;-86
2023/10/06 09:46:13;;;;;;;5.75;2.90;;;;;;;20.65;66.47;101413.42;1503946;86;21604;-87
2023/10/06 09:48:45;;;;;;;6.25;3.08;;;;;;;20.87;63.79;101416.98;1512647;86;21456;-88
2023/10/06 09:51:12;;;;;;;7.80;2.92;;;;;;;21.15;63.55;101423.78;1517253;86;21411;-85
2023/10/06 09:53:43;;;;;;;6.20;2.65;;;;;;;21.15;63.55;101423.78;1506425;86;22123;-85
2023/10/06 09:56:12;;;;;;;7.08;2.55;;;;;;;21.16;61.84;101423.26;1511098;86;22424;-86
2023/10/06 09:58:47;;;;;;;5.12;3.02;;;;;;;21.40;61.63;101418.00;1510406;86;21454;-87
2023/10/06 10:01:15;;;;;;;9.60;2.50;;;;;;;21.22;60.53;101416.27;1512076;86;22578;-87
2023/10/06 10:03:43;;;;;;;5.08;2.33;;;;;;;21.30;60.32;101411.58;1505201;86;22379;-88
2023/10/06 10:06:10;;;;;;;7.97;3.08;;;;;;;21.24;61.26;101418.27;1491253;86;22020;-86
2023/10/06 10:08:41;;;;;;;7.05;2.30;;;;;;;21.10;60.79;101415.96;1510819;86;22468;-86
2023/10/06 10:11:28;;;;;;;5.97;2.83;;;;;;;21.05;59.95;101421.91;1505058;86;21449;-85
2023/10/06 10:14:28;;;;;;;9.63;3.95;;;;;;;21.13;60.05;101415.57;1500279;86;21426;-86
2023/10/06 10:17:19;;;;;;;4.95;2.90;;;;;;;21.08;59.03;101417.48;1512146;86;21469;-86
2023/10/06 10:19:47;;;;;;;6.45;3.72;;;;;;;20.91;57.52;101410.17;1509870;86;21476;-80
2023/10/06 10:22:16;;;;;;;5.40;2.98;;;;;;;20.90;57.51;101413.08;1500799;86;21447;-80
2023/10/06 10:24:43;;;;;;;4.80;2.25;;;;;;;20.93;58.28;101408.66;1499653;86;22608;-80
2023/10/06 10:27:16;;;;;;;9.40;2.95;;;;;;;20.77;56.95;101407.03;1503943;86;21463;-80
2023/10/06 10:29:42;;;;;;;6.90;3.05;;;;;;;20.13;56.21;101407.70;1500983;86;22350;-79
2023/10/06 10:32:17;;;;;;;4.92;3.00;;;;;;;19.98;58.16;101406.88;1508160;86;21543;-80
2023/10/06 10:35:14;;;;;;;7.67;2.90;;;;;;;20.07;59.67;101400.38;1506651;86;22587;-80
2023/10/06 10:38:06;;;;;;;8.13;2.80;;;;;;;20.26;59.71;101399.81;1518515;86;21500;-79
2023/10/06 10:40:47;;;;;;;5.20;2.72;;;;;;;20.37;58.33;101397.65;1502839;86;21585;-79
2023/10/06 10:43:15;;;;;;;7.85;2.98;;;;;;;20.39;57.74;101395.61;1511941;86;22417;-80
2023/10/06 10:45:45;;;;;;;5.80;3.30;;;;;;;20.39;58.19;101388.38;1508236;86;21500;-80
2023/10/06 10:48:15;;;;;;;6.67;3.42;;;;;;;20.43;57.16;101380.79;1515735;86;21470;-80
2023/10/06 10:51:05;;;;;;;7.20;2.27;;;;;;;20.64;58.26;101380.84;1513019;86;21441;-79
2023/10/06 10:53:42;;;;;;;4.95;2.65;;;;;;;20.44;56.79;101381.10;1505603;86;21614;-79
2023/10/06 10:56:06;;;;;;;4.90;2.92;;;;;;;20.29;57.54;101387.34;1489395;86;21425;-79
2023/10/06 10:58:48;;;;;;;6.17;2.72;;;;;;;20.27;56.88;101386.69;1507664;86;22371;-79
2023/10/06 11:01:37;;;;;;;4.70;2.50;;;;;;;20.28;55.45;101380.31;1509509;86;21417;-79
2023/10/06 11:04:35;;;;;;;3.70;2.37;;;;;;;20.50;57.75;101380.34;1504833;86;21478;-80
2023/10/06 11:07:14;;;;;;;5.45;3.12;;;;;;;20.63;56.44;101378.33;1508438;86;21448;-86
2023/10/06 11:09:41;;;;;;;5.05;2.55;;;;;;;20.97;57.78;101383.02;1500268;86;21456;-85
2023/10/06 11:12:24;;;;;;;8.25;3.52;;;;;;;21.14;56.83;101378.20;1512150;86;21411;-85
2023/10/06 11:14:52;;;;;;;8.75;3.05;;;;;;;21.11;56.42;101375.89;1506545;86;21440;-85
2023/10/06 11:17:26;;;;;;;5.35;2.42;;;;;;;20.77;54.87;101375.27;1512602;86;21647;-84
2023/10/06 11:20:15;;;;;;;7.85;3.20;;;;;;;20.54;56.24;101374.92;1510411;86;21434;-86
2023/10/06 11:22:54;;;;;;;8.63;2.97;;;;;;;20.29;56.04;101369.87;1503789;86;21625;-85
2023/10/06 11:25:27;;;;;;;6.58;3.10;;;;;;;20.03;56.84;101366.86;1512594;86;21700;-86
2023/10/06 11:28:04;;;;;;;6.40;3.20;;;;;;;19.78;56.74;101356.39;1523692;86;21528;-86
2023/10/06 11:30:33;;;;;;;;;;;;;;;19.68;57.64;101363.05;1437525;90;21750;-85
2023/10/06 11:33:05;;;;;;;9.58;3.00;;;;;;;19.63;57.30;101362.25;1415224;92;20318;-85
2023/10/06 11:35:34;;;;;;;5.80;3.17;;;;;;;20.00;58.25;101353.80;1422069;92;21702;-86
2023/10/06 11:38:06;;;;;;;4.78;2.75;;;;;;;20.37;58.10;101354.15;1417064;92;22351;-84
2023/10/06 11:40:35;;;;;;;6.55;2.80;;;;;;;20.39;55.46;101349.39;1417301;92;22314;-86
2023/10/06 11:43:17;;;;;;;6.20;3.45;;;;;;;20.35;55.74;101341.91;1417191;92;22349;-85
2023/10/06 11:45:44;;;;;;;12.55;3.25;;;;;;;20.39;55.41;101339.16;1411700;92;22346;-83
2023/10/06 11:48:24;;;;;;;7.92;3.02;;;;;;;20.57;57.18;101335.58;1415314;92;21531;-82